Ambler, Pennsylvania
Current Conditions -  °F | °C
As of 9:55 AM on Tuesday 21 Oct 2014 (Local Time) from KLOM Reporting Station
Clear Clear  
Wind Chill: 15°   Ceiling: Unl
Heat Index: 15°   Visibility: 10mi
Dew Point: 10°   Wind: 0mph
Humidity: 72%   Direction: NA
Pressure: 29.88"   Gusts: NA
Location:  40.16°N, 75.22°W
Report Text: KLOM 211355Z AUTO 00000KT 10SM CLR 15/10 A2988 RMK AO1
Loading
Personal Weather Stations






























Interactive Weather Map New forecast layout! Learn more

10-Day Weather Forecast

Advertisements
Track Severe Weather on mobile